Petaluma, CA (94953)

12:32 AM PDT on October 22, 2014 (GMT -0700)
Sonoma Mt. Parkway | Change Station
CLOSE
Current Station
Personal Weather Station
Location: Petaluma, CA
Elevation: 56 ft
Nearby Weather Stations

Elev 56 ft 38.26 °N, 122.62 °W | Updated 10 seconds ago

Mostly Cloudy
Mostly Cloudy
48.7 °F
Feels Like 49 °F
N
0.0
Wind Variable Wind from West
Gusts 0.0 mph

Today
High -- | Low -- °F
--% Chance of Precip.
Yesterday
High -- | Low -- °F
Precip. -- in
7:26 AM 6:22 PM
Waning Crescent, 3% visible
Pressure 30.07 in
Visibility 10.0 miles
Clouds Scattered Clouds 300 ft
Mostly Cloudy 1800 ft
Windchill 49 °F
Dew Point 47 °F
Humidity 95%
Rainfall 0.00 in
Snow Depth Not available.
UV 0 out of 12
Pollen 2.30 out of 12
Air Quality Not available.
Flu Activity Sporadic
METAR KO69 220715Z AUTO 00000KT 10SM SCT003 BKN018 10/10 A3007 RMK AO1

More Conditions Fewer Conditions

Pressure 30.07 in
Visibility 10.0 miles
Clouds Scattered Clouds 300 ft
Mostly Cloudy 1800 ft
Windchill 49 °F
Dew Point 47 °F
Humidity 95%
Rainfall 0.00 in
Snow Depth Not available.
UV 0 out of 12
Pollen 2.30 out of 12
Air Quality Not available.
Flu Activity Sporadic
METAR KO69 220715Z AUTO 00000KT 10SM SCT003 BKN018 10/10 A3007 RMK AO1

More Conditions Fewer Conditions

10-Day Weather Forecast

Almanac

Astronomy

Oct. 22, 2014 Rise Set
Actual Time 7:26 AM PDT 6:22 PM PDT
Civil Twilight 6:59 AM PDT 6:49 PM PDT
Nautical Twilight 6:28 AM PDT 7:20 PM PDT
Astronomical Twilight 5:58 AM PDT 7:51 PM PDT
Moon 6:14 AM PDT 5:52 PM PDT
Length of Visible Light 11h 50m
Length of Day
10h 56m
Tomorrow will be 2m 18s shorter.
Waning Crescent, 3% of the Moon is Illuminated
Today
Waning Crescent
Oct 23
New
Oct 30
First Quarter
Nov 6
Full
Nov 14
Last Quarter

Today's Extremes

State Highs State Lows

Community

WunderPhotos

Upload Photos

1,763,890 photos uploaded!

Nearby

Air Quality

  Air Quality AQ Index Pollutant
Tuesday Good
PM2.5
Wednesday Good
PM2.5
Thursday Good
PM2.5
Friday Good
PM2.5
Saturday Good
PM2.5
Sunday Good
PM2.5

Snow Depth

Station Depth Elevation
CSS Lab 1 in 6900 ft
Squaw Valley 0 in 8200 ft
Echo Peak 1 in 7800 ft
Rubicon #2 1 in 7500 ft
Fallen Leaf 0 in 6300 ft

Earthquake Activity

City Distance Mag. Time & Date
No recent earthquake activity has been reported nearby.
Minimum magnitude displayed is 2.5.

Coastal Water Temperatures

Place Temperature
San Francisco, CA 62.1 °F
Richmond, CA 64.0 °F
Port Chicago, CA 66.0 °F

Nearby Weather Stations